sensor_id;sensor_type;location;lat;lon;timestamp;pressure;altitude;pressure_sealevel;temperature;humidity
70254;BME280;57649;42.968;1.608;2023-02-28T00:01:16;97523.69;;;0.84;72.40
70254;BME280;57649;42.968;1.608;2023-02-28T00:03:42;97516.00;;;0.81;72.85
70254;BME280;57649;42.968;1.608;2023-02-28T00:06:08;97525.81;;;0.79;73.09
70254;BME280;57649;42.968;1.608;2023-02-28T00:08:35;97507.38;;;0.79;73.27
70254;BME280;57649;42.968;1.608;2023-02-28T00:11:05;97516.94;;;0.67;72.21
70254;BME280;57649;42.968;1.608;2023-02-28T00:13:33;97514.09;;;0.70;71.71
70254;BME280;57649;42.968;1.608;2023-02-28T00:16:13;97511.97;;;0.63;72.44
70254;BME280;57649;42.968;1.608;2023-02-28T00:18:40;97517.56;;;0.71;71.92
70254;BME280;57649;42.968;1.608;2023-02-28T00:21:06;97523.03;;;0.68;70.08
70254;BME280;57649;42.968;1.608;2023-02-28T00:23:32;97524.84;;;0.80;70.02
70254;BME280;57649;42.968;1.608;2023-02-28T00:25:58;97533.09;;;0.88;69.35
70254;BME280;57649;42.968;1.608;2023-02-28T00:28:24;97526.16;;;0.47;66.32
70254;BME280;57649;42.968;1.608;2023-02-28T00:30:49;97535.44;;;0.53;65.20
70254;BME280;57649;42.968;1.608;2023-02-28T00:33:15;97538.84;;;0.68;65.65
70254;BME280;57649;42.968;1.608;2023-02-28T00:35:41;97542.31;;;0.55;66.33
70254;BME280;57649;42.968;1.608;2023-02-28T00:38:07;97553.59;;;0.57;66.73
70254;BME280;57649;42.968;1.608;2023-02-28T00:40:32;97556.31;;;0.56;66.68
70254;BME280;57649;42.968;1.608;2023-02-28T00:42:58;97559.69;;;0.58;67.06
70254;BME280;57649;42.968;1.608;2023-02-28T00:45:23;97557.16;;;0.56;65.84
70254;BME280;57649;42.968;1.608;2023-02-28T00:48:13;97564.97;;;0.58;65.00
70254;BME280;57649;42.968;1.608;2023-02-28T00:50:38;97559.06;;;0.54;65.85
70254;BME280;57649;42.968;1.608;2023-02-28T00:53:04;97566.00;;;0.43;66.87
70254;BME280;57649;42.968;1.608;2023-02-28T00:55:29;97560.63;;;0.44;66.46
70254;BME280;57649;42.968;1.608;2023-02-28T00:57:54;97550.56;;;0.36;65.98
70254;BME280;57649;42.968;1.608;2023-02-28T01:00:20;97543.03;;;0.17;65.57
70254;BME280;57649;42.968;1.608;2023-02-28T01:02:45;97554.13;;;0.23;66.22
70254;BME280;57649;42.968;1.608;2023-02-28T01:05:11;97564.25;;;0.29;66.53
70254;BME280;57649;42.968;1.608;2023-02-28T01:07:36;97557.31;;;0.28;66.15
70254;BME280;57649;42.968;1.608;2023-02-28T01:10:02;97567.44;;;0.34;64.74
70254;BME280;57649;42.968;1.608;2023-02-28T01:12:27;97554.56;;;0.29;65.71
70254;BME280;57649;42.968;1.608;2023-02-28T01:14:53;97555.81;;;0.24;65.47
70254;BME280;57649;42.968;1.608;2023-02-28T01:17:18;97546.88;;;0.26;66.33
70254;BME280;57649;42.968;1.608;2023-02-28T01:19:44;97549.41;;;0.28;65.53
70254;BME280;57649;42.968;1.608;2023-02-28T01:22:09;97556.25;;;0.30;65.95
70254;BME280;57649;42.968;1.608;2023-02-28T01:24:34;97555.41;;;0.30;65.90
70254;BME280;57649;42.968;1.608;2023-02-28T01:27:00;97555.19;;;0.33;65.91
70254;BME280;57649;42.968;1.608;2023-02-28T01:29:25;97560.91;;;0.40;64.39
70254;BME280;57649;42.968;1.608;2023-02-28T01:31:51;97559.72;;;0.31;64.64
70254;BME280;57649;42.968;1.608;2023-02-28T01:34:16;97567.09;;;0.26;63.90
70254;BME280;57649;42.968;1.608;2023-02-28T01:36:44;97560.69;;;0.30;63.26
70254;BME280;57649;42.968;1.608;2023-02-28T01:39:09;97565.63;;;0.34;63.92
70254;BME280;57649;42.968;1.608;2023-02-28T01:41:35;97554.25;;;0.34;63.50
70254;BME280;57649;42.968;1.608;2023-02-28T01:44:04;97555.75;;;0.38;64.09
70254;BME280;57649;42.968;1.608;2023-02-28T01:46:32;97565.03;;;0.44;64.32
70254;BME280;57649;42.968;1.608;2023-02-28T01:49:09;97558.00;;;0.44;63.75
70254;BME280;57649;42.968;1.608;2023-02-28T01:51:42;97556.91;;;0.34;63.67
70254;BME280;57649;42.968;1.608;2023-02-28T01:54:18;97564.84;;;0.19;63.88
70254;BME280;57649;42.968;1.608;2023-02-28T01:56:49;97559.09;;;0.27;63.09
70254;BME280;57649;42.968;1.608;2023-02-28T01:59:22;97561.28;;;0.21;63.86
70254;BME280;57649;42.968;1.608;2023-02-28T02:01:50;97560.97;;;0.25;63.56
70254;BME280;57649;42.968;1.608;2023-02-28T02:04:16;97571.00;;;0.33;63.43
70254;BME280;57649;42.968;1.608;2023-02-28T02:06:43;97556.16;;;0.32;63.34
70254;BME280;57649;42.968;1.608;2023-02-28T02:09:11;97564.25;;;0.29;63.75
70254;BME280;57649;42.968;1.608;2023-02-28T02:11:39;97570.25;;;0.31;63.96
70254;BME280;57649;42.968;1.608;2023-02-28T02:14:40;97570.91;;;0.34;63.61
70254;BME280;57649;42.968;1.608;2023-02-28T02:17:32;97572.84;;;0.45;63.05
70254;BME280;57649;42.968;1.608;2023-02-28T02:20:32;97572.09;;;0.43;62.29
70254;BME280;57649;42.968;1.608;2023-02-28T02:31:16;97569.41;;;0.30;63.21
70254;BME280;57649;42.968;1.608;2023-02-28T02:36:11;97582.44;;;0.46;62.53
70254;BME280;57649;42.968;1.608;2023-02-28T02:38:49;97576.72;;;0.40;61.94
70254;BME280;57649;42.968;1.608;2023-02-28T02:41:23;97583.03;;;0.37;62.13
70254;BME280;57649;42.968;1.608;2023-02-28T02:44:42;97569.88;;;0.37;61.62
70254;BME280;57649;42.968;1.608;2023-02-28T02:46:44;97584.06;;;0.34;62.91
70254;BME280;57649;42.968;1.608;2023-02-28T02:49:16;97572.50;;;0.37;62.48
70254;BME280;57649;42.968;1.608;2023-02-28T02:51:46;97580.00;;;0.43;62.14
70254;BME280;57649;42.968;1.608;2023-02-28T02:54:28;97572.28;;;0.40;62.07
70254;BME280;57649;42.968;1.608;2023-02-28T02:56:56;97570.09;;;0.47;62.02
70254;BME280;57649;42.968;1.608;2023-02-28T02:59:24;97573.84;;;0.30;62.26
70254;BME280;57649;42.968;1.608;2023-02-28T03:01:53;97566.16;;;0.27;62.46
70254;BME280;57649;42.968;1.608;2023-02-28T03:04:22;97562.88;;;0.23;63.34
70254;BME280;57649;42.968;1.608;2023-02-28T03:06:51;97562.31;;;0.18;63.72
70254;BME280;57649;42.968;1.608;2023-02-28T03:09:23;97568.97;;;0.24;63.74
70254;BME280;57649;42.968;1.608;2023-02-28T03:11:51;97570.53;;;0.13;63.31
70254;BME280;57649;42.968;1.608;2023-02-28T03:17:23;97565.50;;;0.23;63.36
70254;BME280;57649;42.968;1.608;2023-02-28T03:20:16;97569.94;;;0.23;63.58
70254;BME280;57649;42.968;1.608;2023-02-28T03:22:45;97561.38;;;0.19;63.87
70254;BME280;57649;42.968;1.608;2023-02-28T03:30:50;97573.06;;;0.15;63.79
70254;BME280;57649;42.968;1.608;2023-02-28T03:33:39;97561.03;;;0.11;64.44
70254;BME280;57649;42.968;1.608;2023-02-28T03:36:12;97560.91;;;0.12;64.55
70254;BME280;57649;42.968;1.608;2023-02-28T03:39:05;97547.66;;;0.14;64.31
70254;BME280;57649;42.968;1.608;2023-02-28T03:44:12;97573.31;;;0.25;64.59
70254;BME280;57649;42.968;1.608;2023-02-28T03:46:46;97561.88;;;0.38;64.79
70254;BME280;57649;42.968;1.608;2023-02-28T03:49:18;97562.56;;;0.28;64.28
70254;BME280;57649;42.968;1.608;2023-02-28T03:51:47;97556.25;;;0.30;65.31
70254;BME280;57649;42.968;1.608;2023-02-28T03:54:18;97562.56;;;0.28;65.35
70254;BME280;57649;42.968;1.608;2023-02-28T03:59:30;97578.16;;;0.31;65.65
70254;BME280;57649;42.968;1.608;2023-02-28T04:01:58;97578.16;;;0.31;66.08
70254;BME280;57649;42.968;1.608;2023-02-28T04:04:24;97578.09;;;0.45;65.88
70254;BME280;57649;42.968;1.608;2023-02-28T04:06:53;97578.19;;;0.44;65.58
70254;BME280;57649;42.968;1.608;2023-02-28T04:09:26;97568.72;;;0.41;66.25
70254;BME280;57649;42.968;1.608;2023-02-28T04:11:53;97565.03;;;0.44;65.84
70254;BME280;57649;42.968;1.608;2023-02-28T04:14:19;97558.19;;;0.41;65.37
70254;BME280;57649;42.968;1.608;2023-02-28T04:16:44;97558.00;;;0.44;65.65
70254;BME280;57649;42.968;1.608;2023-02-28T04:19:12;97553.84;;;0.40;65.47
70254;BME280;57649;42.968;1.608;2023-02-28T04:21:43;97565.47;;;0.50;66.13
70254;BME280;57649;42.968;1.608;2023-02-28T04:24:12;97567.69;;;0.56;66.53
70254;BME280;57649;42.968;1.608;2023-02-28T04:26:45;97561.16;;;0.49;65.80
70254;BME280;57649;42.968;1.608;2023-02-28T04:29:11;97572.22;;;0.54;65.65
70254;BME280;57649;42.968;1.608;2023-02-28T04:31:38;97567.78;;;0.55;66.50
70254;BME280;57649;42.968;1.608;2023-02-28T04:34:03;97568.06;;;0.65;66.04
70254;BME280;57649;42.968;1.608;2023-02-28T04:36:29;97577.34;;;0.70;66.23
70254;BME280;57649;42.968;1.608;2023-02-28T04:38:54;97574.06;;;0.67;66.93
70254;BME280;57649;42.968;1.608;2023-02-28T04:41:21;97574.50;;;0.73;69.41
70254;BME280;57649;42.968;1.608;2023-02-28T04:43:47;97575.13;;;0.77;71.19
70254;BME280;57649;42.968;1.608;2023-02-28T04:46:13;97569.22;;;0.73;70.98
70254;BME280;57649;42.968;1.608;2023-02-28T04:48:39;97570.38;;;0.82;70.68
70254;BME280;57649;42.968;1.608;2023-02-28T04:51:10;97569.03;;;0.89;70.56
70254;BME280;57649;42.968;1.608;2023-02-28T04:53:37;97563.75;;;0.89;69.80
70254;BME280;57649;42.968;1.608;2023-02-28T04:56:03;97570.00;;;0.88;69.82
70254;BME280;57649;42.968;1.608;2023-02-28T04:58:29;97573.78;;;0.97;69.99
70254;BME280;57649;42.968;1.608;2023-02-28T05:01:01;97570.28;;;0.84;70.66
70254;BME280;57649;42.968;1.608;2023-02-28T05:03:27;97576.19;;;0.87;71.40
70254;BME280;57649;42.968;1.608;2023-02-28T05:05:52;97566.09;;;0.94;71.84
70254;BME280;57649;42.968;1.608;2023-02-28T05:08:18;97562.09;;;0.88;71.97
70254;BME280;57649;42.968;1.608;2023-02-28T05:10:43;97573.91;;;0.95;71.70
70254;BME280;57649;42.968;1.608;2023-02-28T05:13:12;97563.75;;;0.89;71.85
70254;BME280;57649;42.968;1.608;2023-02-28T05:15:37;97571.66;;;0.89;71.68
70254;BME280;57649;42.968;1.608;2023-02-28T05:18:03;97578.09;;;0.85;71.06
70254;BME280;57649;42.968;1.608;2023-02-28T05:20:28;97581.81;;;0.95;71.74
70254;BME280;57649;42.968;1.608;2023-02-28T05:22:53;97572.41;;;0.91;71.51
70254;BME280;57649;42.968;1.608;2023-02-28T05:25:20;97572.94;;;0.96;71.94
70254;BME280;57649;42.968;1.608;2023-02-28T05:27:47;97570.09;;;0.87;70.82
70254;BME280;57649;42.968;1.608;2023-02-28T05:30:12;97576.63;;;0.94;70.12
70254;BME280;57649;42.968;1.608;2023-02-28T05:32:38;97569.25;;;0.86;70.29
70254;BME280;57649;42.968;1.608;2023-02-28T05:35:08;97574.09;;;0.92;70.32
70254;BME280;57649;42.968;1.608;2023-02-28T05:37:34;97580.09;;;0.94;69.68
70254;BME280;57649;42.968;1.608;2023-02-28T05:39:59;97579.47;;;0.91;68.96
70254;BME280;57649;42.968;1.608;2023-02-28T05:42:25;97578.94;;;0.99;69.85
70254;BME280;57649;42.968;1.608;2023-02-28T05:44:50;97580.84;;;0.96;70.15
70254;BME280;57649;42.968;1.608;2023-02-28T05:47:17;97583.09;;;1.03;68.58
70254;BME280;57649;42.968;1.608;2023-02-28T05:49:42;97587.19;;;1.07;69.13
70254;BME280;57649;42.968;1.608;2023-02-28T05:52:08;97585.19;;;0.98;69.92
70254;BME280;57649;42.968;1.608;2023-02-28T05:54:33;97584.94;;;0.88;69.74
70254;BME280;57649;42.968;1.608;2023-02-28T05:56:59;97588.81;;;0.82;69.68
70254;BME280;57649;42.968;1.608;2023-02-28T05:59:24;97575.47;;;0.85;69.51
70254;BME280;57649;42.968;1.608;2023-02-28T06:01:50;97581.28;;;0.90;69.62
70254;BME280;57649;42.968;1.608;2023-02-28T06:04:18;97582.84;;;0.93;69.80
70254;BME280;57649;42.968;1.608;2023-02-28T06:06:49;97574.31;;;1.15;68.97
70254;BME280;57649;42.968;1.608;2023-02-28T06:09:16;97572.53;;;1.03;69.66
70254;BME280;57649;42.968;1.608;2023-02-28T06:11:42;97575.28;;;1.14;69.28
70254;BME280;57649;42.968;1.608;2023-02-28T06:14:15;97585.91;;;1.00;68.66
70254;BME280;57649;42.968;1.608;2023-02-28T06:16:42;97569.03;;;0.89;68.20
70254;BME280;57649;42.968;1.608;2023-02-28T06:19:08;97581.69;;;1.10;67.90
70254;BME280;57649;42.968;1.608;2023-02-28T06:21:35;97579.47;;;1.04;67.72
70254;BME280;57649;42.968;1.608;2023-02-28T06:24:01;97583.72;;;0.93;67.87
70254;BME280;57649;42.968;1.608;2023-02-28T06:26:28;97586.13;;;0.96;68.90
70254;BME280;57649;42.968;1.608;2023-02-28T06:28:54;97588.63;;;0.85;68.10
70254;BME280;57649;42.968;1.608;2023-02-28T06:31:20;97594.75;;;0.86;69.00
70254;BME280;57649;42.968;1.608;2023-02-28T06:33:47;97584.19;;;0.86;69.26
70254;BME280;57649;42.968;1.608;2023-02-28T06:36:13;97590.13;;;1.02;68.80
70254;BME280;57649;42.968;1.608;2023-02-28T06:38:39;97584.22;;;0.99;70.37
70254;BME280;57649;42.968;1.608;2023-02-28T06:41:06;97589.41;;;1.13;69.21
70254;BME280;57649;42.968;1.608;2023-02-28T06:43:35;97581.91;;;1.07;68.42
70254;BME280;57649;42.968;1.608;2023-02-28T06:46:05;97584.56;;;1.07;68.73
70254;BME280;57649;42.968;1.608;2023-02-28T06:48:31;97577.81;;;1.03;67.72
70254;BME280;57649;42.968;1.608;2023-02-28T06:53:28;97592.47;;;1.20;68.74
70254;BME280;57649;42.968;1.608;2023-02-28T06:55:54;97600.78;;;1.13;68.13
70254;BME280;57649;42.968;1.608;2023-02-28T06:58:19;97604.03;;;1.04;68.36
70254;BME280;57649;42.968;1.608;2023-02-28T07:00:50;97591.50;;;0.95;67.52
70254;BME280;57649;42.968;1.608;2023-02-28T07:03:15;97605.00;;;1.03;68.75
70254;BME280;57649;42.968;1.608;2023-02-28T07:05:41;97605.09;;;1.02;67.81
70254;BME280;57649;42.968;1.608;2023-02-28T07:08:06;97606.59;;;1.06;67.45
70254;BME280;57649;42.968;1.608;2023-02-28T07:10:33;97608.06;;;1.10;68.78
70254;BME280;57649;42.968;1.608;2023-02-28T07:12:59;97605.56;;;1.21;68.25
70254;BME280;57649;42.968;1.608;2023-02-28T07:15:25;97593.09;;;1.23;66.68
70254;BME280;57649;42.968;1.608;2023-02-28T07:17:50;97602.78;;;1.10;66.19
70254;BME280;57649;42.968;1.608;2023-02-28T07:20:16;97606.81;;;1.15;66.66
70254;BME280;57649;42.968;1.608;2023-02-28T07:22:41;97607.22;;;1.22;66.69
70254;BME280;57649;42.968;1.608;2023-02-28T07:25:07;97608.59;;;1.15;66.93
70254;BME280;57649;42.968;1.608;2023-02-28T07:27:33;97613.25;;;1.37;66.61
70254;BME280;57649;42.968;1.608;2023-02-28T07:29:59;97610.94;;;1.32;67.21
70254;BME280;57649;42.968;1.608;2023-02-28T07:32:27;97619.78;;;1.31;65.99
70254;BME280;57649;42.968;1.608;2023-02-28T07:34:53;97611.03;;;1.31;66.24
70254;BME280;57649;42.968;1.608;2023-02-28T07:37:18;97615.97;;;1.23;66.31
70254;BME280;57649;42.968;1.608;2023-02-28T07:39:44;97625.78;;;1.33;65.40
70254;BME280;57649;42.968;1.608;2023-02-28T07:42:09;97634.78;;;1.31;65.83
70254;BME280;57649;42.968;1.608;2023-02-28T07:44:38;97628.88;;;1.40;65.81
70254;BME280;57649;42.968;1.608;2023-02-28T07:47:09;97634.44;;;1.35;65.29
70254;BME280;57649;42.968;1.608;2023-02-28T07:49:38;97633.94;;;1.43;66.03
70254;BME280;57649;42.968;1.608;2023-02-28T07:52:05;97627.94;;;1.41;66.01
70254;BME280;57649;42.968;1.608;2023-02-28T07:54:31;97644.16;;;1.48;65.98
70254;BME280;57649;42.968;1.608;2023-02-28T07:56:56;97638.78;;;1.49;65.33
70254;BME280;57649;42.968;1.608;2023-02-28T07:59:22;97638.25;;;1.57;66.00
70254;BME280;57649;42.968;1.608;2023-02-28T08:01:47;97626.00;;;1.69;65.53
70254;BME280;57649;42.968;1.608;2023-02-28T08:04:17;97625.28;;;1.67;65.17
70254;BME280;57649;42.968;1.608;2023-02-28T08:06:43;97634.47;;;1.61;64.96
70254;BME280;57649;42.968;1.608;2023-02-28T08:09:09;97645.44;;;1.55;64.85
70254;BME280;57649;42.968;1.608;2023-02-28T08:11:35;97644.69;;;1.66;64.46
70254;BME280;57649;42.968;1.608;2023-02-28T08:14:01;97646.06;;;1.59;63.84
70254;BME280;57649;42.968;1.608;2023-02-28T08:16:26;97640.06;;;1.44;63.77
70254;BME280;57649;42.968;1.608;2023-02-28T08:18:52;97658.09;;;1.50;63.83
70254;BME280;57649;42.968;1.608;2023-02-28T08:21:18;97658.09;;;1.50;63.40
70254;BME280;57649;42.968;1.608;2023-02-28T08:23:47;97666.97;;;1.62;62.70
70254;BME280;57649;42.968;1.608;2023-02-28T08:26:14;97661.81;;;1.60;62.54
70254;BME280;57649;42.968;1.608;2023-02-28T08:28:39;97659.47;;;1.68;64.00
70254;BME280;57649;42.968;1.608;2023-02-28T08:31:12;97654.41;;;1.65;64.33
70254;BME280;57649;42.968;1.608;2023-02-28T08:33:38;97648.16;;;1.79;62.78
70254;BME280;57649;42.968;1.608;2023-02-28T08:36:05;97656.19;;;1.78;63.34
70254;BME280;57649;42.968;1.608;2023-02-28T08:38:30;97667.28;;;1.83;62.60
70254;BME280;57649;42.968;1.608;2023-02-28T08:41:07;97660.84;;;1.87;62.20
70254;BME280;57649;42.968;1.608;2023-02-28T08:43:34;97671.72;;;1.69;61.50
70254;BME280;57649;42.968;1.608;2023-02-28T08:46:00;97665.88;;;1.90;62.60
70254;BME280;57649;42.968;1.608;2023-02-28T08:48:28;97669.25;;;1.92;61.51
70254;BME280;57649;42.968;1.608;2023-02-28T08:50:59;97674.22;;;1.97;62.67
70254;BME280;57649;42.968;1.608;2023-02-28T08:53:26;97670.41;;;2.01;62.30
70254;BME280;57649;42.968;1.608;2023-02-28T08:56:06;97679.28;;;2.13;61.86
70254;BME280;57649;42.968;1.608;2023-02-28T08:58:32;97686.38;;;1.99;61.35
70254;BME280;57649;42.968;1.608;2023-02-28T09:00:57;97685.09;;;2.05;61.76
70254;BME280;57649;42.968;1.608;2023-02-28T09:03:23;97688.53;;;2.31;60.63
70254;BME280;57649;42.968;1.608;2023-02-28T09:08:18;97688.22;;;2.23;61.64
70254;BME280;57649;42.968;1.608;2023-02-28T09:10:44;97697.00;;;2.10;60.43
70254;BME280;57649;42.968;1.608;2023-02-28T09:13:09;97687.59;;;2.19;61.36
70254;BME280;57649;42.968;1.608;2023-02-28T09:15:37;97708.59;;;2.34;61.35
70254;BME280;57649;42.968;1.608;2023-02-28T09:18:03;97701.09;;;2.40;61.78
70254;BME280;57649;42.968;1.608;2023-02-28T09:20:28;97693.94;;;2.29;60.41
70254;BME280;57649;42.968;1.608;2023-02-28T09:22:53;97692.38;;;2.14;60.68
70254;BME280;57649;42.968;1.608;2023-02-28T09:25:19;97692.91;;;2.06;60.69
70254;BME280;57649;42.968;1.608;2023-02-28T09:27:44;97704.19;;;2.21;60.50
70254;BME280;57649;42.968;1.608;2023-02-28T09:30:11;97695.56;;;2.06;60.44
70254;BME280;57649;42.968;1.608;2023-02-28T09:32:37;97709.81;;;2.17;62.04
70254;BME280;57649;42.968;1.608;2023-02-28T09:35:03;97713.19;;;2.19;60.58
70254;BME280;57649;42.968;1.608;2023-02-28T09:37:29;97711.78;;;2.26;60.25
70254;BME280;57649;42.968;1.608;2023-02-28T09:39:56;97699.31;;;2.28;60.30
70254;BME280;57649;42.968;1.608;2023-02-28T09:42:26;97708.59;;;2.34;61.19
70254;BME280;57649;42.968;1.608;2023-02-28T09:44:55;97702.34;;;2.47;58.86
70254;BME280;57649;42.968;1.608;2023-02-28T09:47:30;97708.72;;;2.32;60.46
70254;BME280;57649;42.968;1.608;2023-02-28T09:50:06;97701.50;;;2.34;59.31
70254;BME280;57649;42.968;1.608;2023-02-28T09:52:38;97700.66;;;2.46;59.74
70254;BME280;57649;42.968;1.608;2023-02-28T09:55:29;97716.94;;;2.40;61.07
70254;BME280;57649;42.968;1.608;2023-02-28T09:57:56;97707.38;;;2.50;60.40
70254;BME280;57649;42.968;1.608;2023-02-28T10:00:31;97714.66;;;2.60;60.57
70254;BME280;57649;42.968;1.608;2023-02-28T10:03:30;97713.72;;;2.61;60.07
70254;BME280;57649;42.968;1.608;2023-02-28T10:08:31;97704.09;;;2.84;60.89
70254;BME280;57649;42.968;1.608;2023-02-28T10:11:01;97705.13;;;2.70;59.88
70254;BME280;57649;42.968;1.608;2023-02-28T10:16:47;97701.13;;;2.64;59.16
70254;BME280;57649;42.968;1.608;2023-02-28T10:19:02;97698.13;;;2.69;60.06
70254;BME280;57649;42.968;1.608;2023-02-28T10:21:34;97698.22;;;2.80;59.23
70254;BME280;57649;42.968;1.608;2023-02-28T10:24:14;97702.38;;;2.96;59.76
70254;BME280;57649;42.968;1.608;2023-02-28T10:26:45;97700.75;;;3.06;58.31
70254;BME280;57649;42.968;1.608;2023-02-28T10:29:12;97708.59;;;3.19;58.98
70254;BME280;57649;42.968;1.608;2023-02-28T10:31:38;97710.09;;;2.99;58.34
70254;BME280;57649;42.968;1.608;2023-02-28T10:34:04;97714.47;;;2.87;59.08
70254;BME280;57649;42.968;1.608;2023-02-28T10:36:31;97706.56;;;2.98;58.80
70254;BME280;57649;42.968;1.608;2023-02-28T10:38:57;97702.31;;;3.08;58.63
70254;BME280;57649;42.968;1.608;2023-02-28T10:41:30;97705.78;;;3.09;58.53
70254;BME280;57649;42.968;1.608;2023-02-28T10:44:17;97709.16;;;3.11;57.41
70254;BME280;57649;42.968;1.608;2023-02-28T10:46:45;97708.59;;;3.19;57.22
70254;BME280;57649;42.968;1.608;2023-02-28T10:49:20;97698.13;;;3.17;57.62
70254;BME280;57649;42.968;1.608;2023-02-28T10:51:46;97697.97;;;2.83;58.05
70254;BME280;57649;42.968;1.608;2023-02-28T10:54:35;97695.78;;;3.01;58.52
70254;BME280;57649;42.968;1.608;2023-02-28T10:57:19;97698.25;;;3.16;57.85
70254;BME280;57649;42.968;1.608;2023-02-28T10:59:45;97689.50;;;3.26;58.18
70254;BME280;57649;42.968;1.608;2023-02-28T11:02:32;97699.50;;;3.34;57.60
70254;BME280;57649;42.968;1.608;2023-02-28T11:04:58;97687.97;;;3.35;57.83
70254;BME280;57649;42.968;1.608;2023-02-28T11:07:26;97689.50;;;3.26;58.29
70254;BME280;57649;42.968;1.608;2023-02-28T11:09:55;97692.44;;;3.46;57.97
70254;BME280;57649;42.968;1.608;2023-02-28T11:12:38;97697.69;;;3.35;57.04
70254;BME280;57649;42.968;1.608;2023-02-28T11:15:18;97681.03;;;3.10;58.35
70254;BME280;57649;42.968;1.608;2023-02-28T11:17:57;97691.88;;;3.54;58.50
70254;BME280;57649;42.968;1.608;2023-02-28T11:20:26;97679.84;;;3.61;57.62
70254;BME280;57649;42.968;1.608;2023-02-28T11:22:54;97686.34;;;3.68;57.12
70254;BME280;57649;42.968;1.608;2023-02-28T11:25:30;97695.88;;;3.82;57.36
70254;BME280;57649;42.968;1.608;2023-02-28T11:28:02;97682.84;;;3.67;57.07
70254;BME280;57649;42.968;1.608;2023-02-28T11:30:39;97673.75;;;3.83;56.95
70254;BME280;57649;42.968;1.608;2023-02-28T11:36:13;97671.47;;;4.12;56.50
70254;BME280;57649;42.968;1.608;2023-02-28T11:38:39;97670.97;;;4.18;55.54
70254;BME280;57649;42.968;1.608;2023-02-28T11:41:21;97670.00;;;4.08;55.49
70254;BME280;57649;42.968;1.608;2023-02-28T11:44:13;97675.19;;;3.87;56.51
70254;BME280;57649;42.968;1.608;2023-02-28T11:46:54;97661.44;;;4.04;57.04
70254;BME280;57649;42.968;1.608;2023-02-28T11:49:48;97657.47;;;4.21;55.79
70254;BME280;57649;42.968;1.608;2023-02-28T11:55:25;97655.28;;;4.38;55.28
70254;BME280;57649;42.968;1.608;2023-02-28T12:00:44;97637.97;;;4.00;55.00
70254;BME280;57649;42.968;1.608;2023-02-28T12:06:15;97630.09;;;4.32;54.57
70254;BME280;57649;42.968;1.608;2023-02-28T12:11:56;97634.38;;;4.56;54.17
70254;BME280;57649;42.968;1.608;2023-02-28T12:14:46;97633.47;;;4.46;54.50
70254;BME280;57649;42.968;1.608;2023-02-28T12:26:09;97638.94;;;4.21;55.13
70254;BME280;57649;42.968;1.608;2023-02-28T12:28:43;97625.81;;;3.97;53.86
70254;BME280;57649;42.968;1.608;2023-02-28T12:31:24;97629.06;;;4.12;54.87
70254;BME280;57649;42.968;1.608;2023-02-28T12:34:07;97617.50;;;4.02;55.16
70254;BME280;57649;42.968;1.608;2023-02-28T12:36:36;97616.13;;;4.30;54.63
70254;BME280;57649;42.968;1.608;2023-02-28T12:39:08;97628.88;;;4.48;54.14
70254;BME280;57649;42.968;1.608;2023-02-28T12:41:55;97625.09;;;4.61;54.11
70254;BME280;57649;42.968;1.608;2023-02-28T12:46:59;97610.09;;;4.39;54.71
70254;BME280;57649;42.968;1.608;2023-02-28T12:49:39;97617.72;;;4.21;55.00
70254;BME280;57649;42.968;1.608;2023-02-28T12:52:06;97603.38;;;4.24;55.34
70254;BME280;57649;42.968;1.608;2023-02-28T12:54:43;97609.03;;;4.19;55.05
70254;BME280;57649;42.968;1.608;2023-02-28T12:59:54;97606.97;;;4.23;55.05
70254;BME280;57649;42.968;1.608;2023-02-28T13:07:58;97604.47;;;4.10;54.34
70254;BME280;57649;42.968;1.608;2023-02-28T13:10:44;97601.84;;;3.99;55.46
70254;BME280;57649;42.968;1.608;2023-02-28T13:13:21;97597.59;;;4.19;54.82
70254;BME280;57649;42.968;1.608;2023-02-28T13:16:08;97598.78;;;4.26;54.37
70254;BME280;57649;42.968;1.608;2023-02-28T13:18:37;97614.25;;;3.98;55.60
70254;BME280;57649;42.968;1.608;2023-02-28T13:21:06;97599.78;;;4.14;56.31
70254;BME280;57649;42.968;1.608;2023-02-28T13:23:40;97601.50;;;3.92;55.64
70254;BME280;57649;42.968;1.608;2023-02-28T13:26:05;97599.69;;;4.04;54.97
70254;BME280;57649;42.968;1.608;2023-02-28T13:29:00;97589.91;;;4.04;54.90
70254;BME280;57649;42.968;1.608;2023-02-28T13:31:26;97576.56;;;4.06;55.23
70254;BME280;57649;42.968;1.608;2023-02-28T13:36:26;97570.00;;;4.33;53.94
70254;BME280;57649;42.968;1.608;2023-02-28T13:38:59;97574.84;;;4.16;55.10
70254;BME280;57649;42.968;1.608;2023-02-28T13:44:16;97581.06;;;4.38;54.88
70254;BME280;57649;42.968;1.608;2023-02-28T13:51:53;97572.22;;;4.49;55.09
70254;BME280;57649;42.968;1.608;2023-02-28T13:57:14;97563.94;;;4.42;54.76
70254;BME280;57649;42.968;1.608;2023-02-28T14:03:05;97585.69;;;4.57;55.31
70254;BME280;57649;42.968;1.608;2023-02-28T14:05:33;97572.91;;;4.62;54.75
70254;BME280;57649;42.968;1.608;2023-02-28T14:08:06;97572.22;;;4.49;54.58
70254;BME280;57649;42.968;1.608;2023-02-28T14:16:05;97568.97;;;4.56;55.69
70254;BME280;57649;42.968;1.608;2023-02-28T14:18:36;97576.88;;;4.24;55.19
70254;BME280;57649;42.968;1.608;2023-02-28T14:35:21;97576.41;;;4.19;55.57
70254;BME280;57649;42.968;1.608;2023-02-28T14:37:53;97558.94;;;4.28;55.36
70254;BME280;57649;42.968;1.608;2023-02-28T14:40:30;97555.41;;;4.38;54.69
70254;BME280;57649;42.968;1.608;2023-02-28T14:42:58;97561.28;;;3.98;55.21
70254;BME280;57649;42.968;1.608;2023-02-28T14:45:27;97569.50;;;3.73;55.78
70254;BME280;57649;42.968;1.608;2023-02-28T14:47:54;97573.81;;;3.62;56.42
70254;BME280;57649;42.968;1.608;2023-02-28T14:50:27;97567.78;;;3.72;57.28
70254;BME280;57649;42.968;1.608;2023-02-28T14:52:55;97569.59;;;3.71;56.29
70254;BME280;57649;42.968;1.608;2023-02-28T14:55:26;97560.59;;;3.74;56.58
70254;BME280;57649;42.968;1.608;2023-02-28T14:57:56;97561.31;;;3.87;56.12
70254;BME280;57649;42.968;1.608;2023-02-28T15:00:26;97575.50;;;3.86;55.46
70254;BME280;57649;42.968;1.608;2023-02-28T15:02:53;97568.06;;;3.69;54.50
70254;BME280;57649;42.968;1.608;2023-02-28T15:08:15;97545.66;;;3.39;56.21
70254;BME280;57649;42.968;1.608;2023-02-28T15:10:51;97560.34;;;3.54;56.13
70254;BME280;57649;42.968;1.608;2023-02-28T15:13:18;97565.66;;;3.32;56.01